sensor_id;sensor_type;location;lat;lon;timestamp;P1;durP1;ratioP1;P2;durP2;ratioP2
35715;SDS011;21840;44.920;8.616;2022-11-20T00:00:48;36.05;;;22.38;;
35715;SDS011;21840;44.920;8.616;2022-11-20T00:03:14;35.67;;;23.02;;
35715;SDS011;21840;44.920;8.616;2022-11-20T00:05:40;40.17;;;23.75;;
35715;SDS011;21840;44.920;8.616;2022-11-20T00:08:08;39.08;;;23.40;;
35715;SDS011;21840;44.920;8.616;2022-11-20T00:10:36;43.13;;;24.40;;
35715;SDS011;21840;44.920;8.616;2022-11-20T00:13:02;40.88;;;24.27;;
35715;SDS011;21840;44.920;8.616;2022-11-20T00:15:27;41.63;;;25.77;;
35715;SDS011;21840;44.920;8.616;2022-11-20T00:17:53;37.22;;;23.33;;
35715;SDS011;21840;44.920;8.616;2022-11-20T00:20:18;41.33;;;23.70;;
35715;SDS011;21840;44.920;8.616;2022-11-20T00:22:44;34.45;;;22.08;;
35715;SDS011;21840;44.920;8.616;2022-11-20T00:25:09;41.88;;;24.10;;
35715;SDS011;21840;44.920;8.616;2022-11-20T00:27:35;37.67;;;23.08;;
35715;SDS011;21840;44.920;8.616;2022-11-20T00:30:00;41.50;;;24.35;;
35715;SDS011;21840;44.920;8.616;2022-11-20T00:32:26;51.22;;;29.17;;
35715;SDS011;21840;44.920;8.616;2022-11-20T00:34:51;41.78;;;24.02;;
35715;SDS011;21840;44.920;8.616;2022-11-20T00:37:17;48.78;;;25.63;;
35715;SDS011;21840;44.920;8.616;2022-11-20T00:39:42;43.80;;;25.92;;
35715;SDS011;21840;44.920;8.616;2022-11-20T00:42:08;45.20;;;25.83;;
35715;SDS011;21840;44.920;8.616;2022-11-20T00:44:33;48.17;;;26.55;;
35715;SDS011;21840;44.920;8.616;2022-11-20T00:46:59;41.78;;;24.65;;
35715;SDS011;21840;44.920;8.616;2022-11-20T00:49:24;47.30;;;25.67;;
35715;SDS011;21840;44.920;8.616;2022-11-20T00:51:50;33.92;;;21.55;;
35715;SDS011;21840;44.920;8.616;2022-11-20T00:54:15;35.20;;;21.50;;
35715;SDS011;21840;44.920;8.616;2022-11-20T00:56:41;35.53;;;21.38;;
35715;SDS011;21840;44.920;8.616;2022-11-20T00:59:08;31.52;;;19.27;;
35715;SDS011;21840;44.920;8.616;2022-11-20T01:01:34;34.28;;;21.38;;
35715;SDS011;21840;44.920;8.616;2022-11-20T01:04:01;96.15;;;22.40;;
35715;SDS011;21840;44.920;8.616;2022-11-20T01:06:28;32.05;;;20.40;;
35715;SDS011;21840;44.920;8.616;2022-11-20T01:08:56;31.30;;;20.77;;
35715;SDS011;21840;44.920;8.616;2022-11-20T01:11:24;31.85;;;19.67;;
35715;SDS011;21840;44.920;8.616;2022-11-20T01:13:52;32.00;;;20.80;;
35715;SDS011;21840;44.920;8.616;2022-11-20T01:16:22;31.92;;;20.27;;
35715;SDS011;21840;44.920;8.616;2022-11-20T01:18:53;31.38;;;20.35;;
35715;SDS011;21840;44.920;8.616;2022-11-20T01:21:22;32.65;;;21.67;;
35715;SDS011;21840;44.920;8.616;2022-11-20T01:23:49;32.58;;;19.80;;
35715;SDS011;21840;44.920;8.616;2022-11-20T01:26:17;33.70;;;21.33;;
35715;SDS011;21840;44.920;8.616;2022-11-20T01:28:44;34.17;;;20.88;;
35715;SDS011;21840;44.920;8.616;2022-11-20T01:31:14;30.35;;;20.35;;
35715;SDS011;21840;44.920;8.616;2022-11-20T01:33:52;29.70;;;20.17;;
35715;SDS011;21840;44.920;8.616;2022-11-20T01:36:20;33.90;;;20.90;;
35715;SDS011;21840;44.920;8.616;2022-11-20T01:38:46;31.25;;;21.17;;
35715;SDS011;21840;44.920;8.616;2022-11-20T01:41:13;31.48;;;20.73;;
35715;SDS011;21840;44.920;8.616;2022-11-20T01:44:00;33.40;;;21.63;;
35715;SDS011;21840;44.920;8.616;2022-11-20T01:46:26;30.63;;;20.23;;
35715;SDS011;21840;44.920;8.616;2022-11-20T01:48:54;29.30;;;20.15;;
35715;SDS011;21840;44.920;8.616;2022-11-20T01:53:56;32.22;;;20.88;;
35715;SDS011;21840;44.920;8.616;2022-11-20T01:56:27;42.63;;;23.73;;
35715;SDS011;21840;44.920;8.616;2022-11-20T01:58:56;36.47;;;22.42;;
35715;SDS011;21840;44.920;8.616;2022-11-20T02:01:26;37.78;;;22.48;;
35715;SDS011;21840;44.920;8.616;2022-11-20T02:03:52;37.35;;;22.42;;
35715;SDS011;21840;44.920;8.616;2022-11-20T02:06:29;35.97;;;21.52;;
35715;SDS011;21840;44.920;8.616;2022-11-20T02:09:00;33.90;;;21.35;;
35715;SDS011;21840;44.920;8.616;2022-11-20T02:11:29;33.20;;;21.20;;
35715;SDS011;21840;44.920;8.616;2022-11-20T02:13:55;30.98;;;19.85;;
35715;SDS011;21840;44.920;8.616;2022-11-20T02:18:47;55.85;;;19.63;;
35715;SDS011;21840;44.920;8.616;2022-11-20T02:21:24;37.42;;;20.52;;
35715;SDS011;21840;44.920;8.616;2022-11-20T02:24:02;56.90;;;20.42;;
35715;SDS011;21840;44.920;8.616;2022-11-20T02:26:31;92.47;;;20.88;;
35715;SDS011;21840;44.920;8.616;2022-11-20T02:29:00;89.13;;;20.60;;
35715;SDS011;21840;44.920;8.616;2022-11-20T02:31:27;146.13;;;21.65;;
35715;SDS011;21840;44.920;8.616;2022-11-20T02:33:56;159.73;;;21.25;;
35715;SDS011;21840;44.920;8.616;2022-11-20T02:36:23;77.43;;;21.50;;
35715;SDS011;21840;44.920;8.616;2022-11-20T02:38:51;112.38;;;23.58;;
35715;SDS011;21840;44.920;8.616;2022-11-20T02:41:16;85.65;;;24.63;;
35715;SDS011;21840;44.920;8.616;2022-11-20T02:43:42;60.65;;;23.75;;
35715;SDS011;21840;44.920;8.616;2022-11-20T02:46:08;66.80;;;21.27;;
35715;SDS011;21840;44.920;8.616;2022-11-20T02:48:33;43.95;;;21.17;;
35715;SDS011;21840;44.920;8.616;2022-11-20T02:50:59;47.72;;;22.00;;
35715;SDS011;21840;44.920;8.616;2022-11-20T02:53:25;38.85;;;20.13;;
35715;SDS011;21840;44.920;8.616;2022-11-20T02:55:50;34.42;;;21.15;;
35715;SDS011;21840;44.920;8.616;2022-11-20T02:58:16;53.70;;;22.40;;
35715;SDS011;21840;44.920;8.616;2022-11-20T03:00:41;49.38;;;22.98;;
35715;SDS011;21840;44.920;8.616;2022-11-20T03:03:07;66.32;;;22.88;;
35715;SDS011;21840;44.920;8.616;2022-11-20T03:05:32;47.90;;;22.05;;
35715;SDS011;21840;44.920;8.616;2022-11-20T03:07:58;43.15;;;21.67;;
35715;SDS011;21840;44.920;8.616;2022-11-20T03:10:24;57.33;;;19.70;;
35715;SDS011;21840;44.920;8.616;2022-11-20T03:12:53;48.30;;;21.83;;
35715;SDS011;21840;44.920;8.616;2022-11-20T03:15:20;73.88;;;20.63;;
35715;SDS011;21840;44.920;8.616;2022-11-20T03:17:46;77.70;;;20.48;;
35715;SDS011;21840;44.920;8.616;2022-11-20T03:20:11;38.03;;;20.67;;
35715;SDS011;21840;44.920;8.616;2022-11-20T03:22:37;34.35;;;20.42;;
35715;SDS011;21840;44.920;8.616;2022-11-20T03:25:03;37.80;;;19.92;;
35715;SDS011;21840;44.920;8.616;2022-11-20T03:27:31;27.60;;;19.00;;
35715;SDS011;21840;44.920;8.616;2022-11-20T03:29:58;34.35;;;20.60;;
35715;SDS011;21840;44.920;8.616;2022-11-20T03:32:24;32.00;;;20.90;;
35715;SDS011;21840;44.920;8.616;2022-11-20T03:34:49;27.40;;;19.10;;
35715;SDS011;21840;44.920;8.616;2022-11-20T03:37:14;33.78;;;20.63;;
35715;SDS011;21840;44.920;8.616;2022-11-20T03:39:40;32.42;;;20.33;;
35715;SDS011;21840;44.920;8.616;2022-11-20T03:42:05;30.17;;;21.08;;
35715;SDS011;21840;44.920;8.616;2022-11-20T03:44:51;31.70;;;20.20;;
35715;SDS011;21840;44.920;8.616;2022-11-20T03:47:19;33.50;;;21.67;;
35715;SDS011;21840;44.920;8.616;2022-11-20T03:49:44;37.72;;;22.42;;
35715;SDS011;21840;44.920;8.616;2022-11-20T03:52:10;35.75;;;22.13;;
35715;SDS011;21840;44.920;8.616;2022-11-20T03:54:35;36.47;;;22.05;;
35715;SDS011;21840;44.920;8.616;2022-11-20T03:57:01;32.15;;;20.17;;
35715;SDS011;21840;44.920;8.616;2022-11-20T03:59:26;35.83;;;21.85;;
35715;SDS011;21840;44.920;8.616;2022-11-20T04:01:52;36.83;;;21.48;;
35715;SDS011;21840;44.920;8.616;2022-11-20T04:04:17;31.98;;;20.02;;
35715;SDS011;21840;44.920;8.616;2022-11-20T04:06:43;30.98;;;19.50;;
35715;SDS011;21840;44.920;8.616;2022-11-20T04:09:08;29.83;;;19.17;;
35715;SDS011;21840;44.920;8.616;2022-11-20T04:11:35;32.75;;;19.75;;
35715;SDS011;21840;44.920;8.616;2022-11-20T04:14:05;28.98;;;19.70;;
35715;SDS011;21840;44.920;8.616;2022-11-20T04:16:36;33.70;;;21.38;;
35715;SDS011;21840;44.920;8.616;2022-11-20T04:19:03;33.50;;;20.92;;
35715;SDS011;21840;44.920;8.616;2022-11-20T04:21:30;28.70;;;18.80;;
35715;SDS011;21840;44.920;8.616;2022-11-20T04:23:55;31.05;;;19.52;;
35715;SDS011;21840;44.920;8.616;2022-11-20T04:26:22;28.52;;;19.42;;
35715;SDS011;21840;44.920;8.616;2022-11-20T04:28:49;32.78;;;20.10;;
35715;SDS011;21840;44.920;8.616;2022-11-20T04:31:17;32.40;;;19.70;;
35715;SDS011;21840;44.920;8.616;2022-11-20T04:33:46;32.72;;;19.15;;
35715;SDS011;21840;44.920;8.616;2022-11-20T04:38:39;27.85;;;18.55;;
35715;SDS011;21840;44.920;8.616;2022-11-20T04:41:05;29.98;;;18.85;;
35715;SDS011;21840;44.920;8.616;2022-11-20T04:43:33;29.35;;;18.33;;
35715;SDS011;21840;44.920;8.616;2022-11-20T04:45:59;28.20;;;17.73;;
35715;SDS011;21840;44.920;8.616;2022-11-20T04:48:25;31.38;;;19.35;;
35715;SDS011;21840;44.920;8.616;2022-11-20T04:50:52;30.02;;;18.05;;
35715;SDS011;21840;44.920;8.616;2022-11-20T04:53:18;23.13;;;15.70;;
35715;SDS011;21840;44.920;8.616;2022-11-20T04:55:45;30.48;;;18.20;;
35715;SDS011;21840;44.920;8.616;2022-11-20T04:58:11;30.83;;;18.70;;
35715;SDS011;21840;44.920;8.616;2022-11-20T05:00:37;35.97;;;17.35;;
35715;SDS011;21840;44.920;8.616;2022-11-20T05:03:02;25.85;;;16.73;;
35715;SDS011;21840;44.920;8.616;2022-11-20T05:05:28;24.38;;;17.02;;
35715;SDS011;21840;44.920;8.616;2022-11-20T05:07:55;29.05;;;18.73;;
35715;SDS011;21840;44.920;8.616;2022-11-20T05:10:22;27.17;;;17.85;;
35715;SDS011;21840;44.920;8.616;2022-11-20T05:12:49;27.40;;;17.83;;
35715;SDS011;21840;44.920;8.616;2022-11-20T05:15:14;27.35;;;18.05;;
35715;SDS011;21840;44.920;8.616;2022-11-20T05:17:39;27.88;;;18.00;;
35715;SDS011;21840;44.920;8.616;2022-11-20T05:20:05;29.67;;;18.30;;
35715;SDS011;21840;44.920;8.616;2022-11-20T05:22:31;29.45;;;19.15;;
35715;SDS011;21840;44.920;8.616;2022-11-20T05:24:56;27.38;;;17.70;;
35715;SDS011;21840;44.920;8.616;2022-11-20T05:27:22;28.23;;;18.30;;
35715;SDS011;21840;44.920;8.616;2022-11-20T05:29:47;25.40;;;16.80;;
35715;SDS011;21840;44.920;8.616;2022-11-20T05:32:13;25.15;;;17.55;;
35715;SDS011;21840;44.920;8.616;2022-11-20T05:34:38;28.23;;;17.92;;
35715;SDS011;21840;44.920;8.616;2022-11-20T05:37:04;30.38;;;18.02;;
35715;SDS011;21840;44.920;8.616;2022-11-20T05:39:29;28.30;;;17.55;;
35715;SDS011;21840;44.920;8.616;2022-11-20T05:41:55;30.00;;;18.38;;
35715;SDS011;21840;44.920;8.616;2022-11-20T05:44:39;28.98;;;18.48;;
35715;SDS011;21840;44.920;8.616;2022-11-20T05:47:05;29.27;;;17.75;;
35715;SDS011;21840;44.920;8.616;2022-11-20T05:49:31;29.50;;;19.05;;
35715;SDS011;21840;44.920;8.616;2022-11-20T05:51:57;33.53;;;20.52;;
35715;SDS011;21840;44.920;8.616;2022-11-20T05:54:22;32.03;;;19.33;;
35715;SDS011;21840;44.920;8.616;2022-11-20T05:56:48;29.13;;;18.63;;
35715;SDS011;21840;44.920;8.616;2022-11-20T05:59:13;32.95;;;19.75;;
35715;SDS011;21840;44.920;8.616;2022-11-20T06:01:39;35.75;;;20.00;;
35715;SDS011;21840;44.920;8.616;2022-11-20T06:04:04;39.22;;;20.67;;
35715;SDS011;21840;44.920;8.616;2022-11-20T06:06:32;31.20;;;18.63;;
35715;SDS011;21840;44.920;8.616;2022-11-20T06:08:58;34.75;;;20.13;;
35715;SDS011;21840;44.920;8.616;2022-11-20T06:11:24;34.55;;;21.17;;
35715;SDS011;21840;44.920;8.616;2022-11-20T06:13:50;37.22;;;20.60;;
35715;SDS011;21840;44.920;8.616;2022-11-20T06:16:16;40.17;;;22.38;;
35715;SDS011;21840;44.920;8.616;2022-11-20T06:18:44;48.33;;;23.80;;
35715;SDS011;21840;44.920;8.616;2022-11-20T06:21:14;43.53;;;23.30;;
35715;SDS011;21840;44.920;8.616;2022-11-20T06:23:42;43.38;;;23.30;;
35715;SDS011;21840;44.920;8.616;2022-11-20T06:26:11;39.80;;;22.45;;
35715;SDS011;21840;44.920;8.616;2022-11-20T06:28:39;42.27;;;23.43;;
35715;SDS011;21840;44.920;8.616;2022-11-20T06:31:06;45.22;;;21.20;;
35715;SDS011;21840;44.920;8.616;2022-11-20T06:33:32;46.45;;;21.75;;
35715;SDS011;21840;44.920;8.616;2022-11-20T06:36:01;44.70;;;22.17;;
35715;SDS011;21840;44.920;8.616;2022-11-20T06:38:27;37.22;;;20.67;;
35715;SDS011;21840;44.920;8.616;2022-11-20T06:40:53;34.03;;;20.30;;
35715;SDS011;21840;44.920;8.616;2022-11-20T06:43:20;33.40;;;20.05;;
35715;SDS011;21840;44.920;8.616;2022-11-20T06:45:46;38.40;;;20.85;;
35715;SDS011;21840;44.920;8.616;2022-11-20T06:48:11;43.63;;;21.92;;
35715;SDS011;21840;44.920;8.616;2022-11-20T06:50:37;40.53;;;22.55;;
35715;SDS011;21840;44.920;8.616;2022-11-20T06:53:02;41.40;;;23.27;;
35715;SDS011;21840;44.920;8.616;2022-11-20T06:55:29;38.53;;;22.33;;
35715;SDS011;21840;44.920;8.616;2022-11-20T06:57:55;42.40;;;22.27;;
35715;SDS011;21840;44.920;8.616;2022-11-20T07:00:21;39.30;;;22.25;;
35715;SDS011;21840;44.920;8.616;2022-11-20T07:02:46;37.97;;;21.45;;
35715;SDS011;21840;44.920;8.616;2022-11-20T07:05:12;41.28;;;22.85;;
35715;SDS011;21840;44.920;8.616;2022-11-20T07:07:38;38.35;;;21.98;;
35715;SDS011;21840;44.920;8.616;2022-11-20T07:10:03;37.25;;;21.90;;
35715;SDS011;21840;44.920;8.616;2022-11-20T07:12:29;37.78;;;20.83;;
35715;SDS011;21840;44.920;8.616;2022-11-20T07:14:55;40.72;;;22.00;;
35715;SDS011;21840;44.920;8.616;2022-11-20T07:17:20;35.63;;;20.65;;
35715;SDS011;21840;44.920;8.616;2022-11-20T07:19:46;39.30;;;21.65;;
35715;SDS011;21840;44.920;8.616;2022-11-20T07:22:11;40.00;;;22.58;;
35715;SDS011;21840;44.920;8.616;2022-11-20T07:24:38;47.33;;;22.02;;
35715;SDS011;21840;44.920;8.616;2022-11-20T07:27:04;38.13;;;22.23;;
35715;SDS011;21840;44.920;8.616;2022-11-20T07:29:29;39.25;;;21.35;;
35715;SDS011;21840;44.920;8.616;2022-11-20T07:31:55;44.00;;;22.13;;
35715;SDS011;21840;44.920;8.616;2022-11-20T07:34:21;42.08;;;21.98;;
35715;SDS011;21840;44.920;8.616;2022-11-20T07:36:47;44.28;;;22.13;;
35715;SDS011;21840;44.920;8.616;2022-11-20T07:39:13;39.78;;;20.92;;
35715;SDS011;21840;44.920;8.616;2022-11-20T07:41:38;39.10;;;21.00;;
35715;SDS011;21840;44.920;8.616;2022-11-20T07:44:04;45.05;;;21.58;;
35715;SDS011;21840;44.920;8.616;2022-11-20T07:46:30;39.00;;;19.98;;
35715;SDS011;21840;44.920;8.616;2022-11-20T07:48:55;38.75;;;20.40;;
35715;SDS011;21840;44.920;8.616;2022-11-20T07:51:21;41.67;;;21.83;;
35715;SDS011;21840;44.920;8.616;2022-11-20T07:53:47;42.25;;;22.98;;
35715;SDS011;21840;44.920;8.616;2022-11-20T07:56:12;39.50;;;20.25;;
35715;SDS011;21840;44.920;8.616;2022-11-20T07:58:39;37.78;;;20.48;;
35715;SDS011;21840;44.920;8.616;2022-11-20T08:01:05;39.40;;;20.70;;
35715;SDS011;21840;44.920;8.616;2022-11-20T08:03:32;39.72;;;21.70;;
35715;SDS011;21840;44.920;8.616;2022-11-20T08:05:59;40.05;;;21.55;;
35715;SDS011;21840;44.920;8.616;2022-11-20T08:08:26;44.83;;;21.25;;
35715;SDS011;21840;44.920;8.616;2022-11-20T08:10:52;40.67;;;21.95;;
35715;SDS011;21840;44.920;8.616;2022-11-20T08:13:38;38.88;;;20.92;;
35715;SDS011;21840;44.920;8.616;2022-11-20T08:16:22;37.22;;;19.92;;
35715;SDS011;21840;44.920;8.616;2022-11-20T08:18:47;36.92;;;19.48;;
35715;SDS011;21840;44.920;8.616;2022-11-20T08:21:13;41.00;;;21.60;;
35715;SDS011;21840;44.920;8.616;2022-11-20T08:23:38;40.13;;;21.40;;
35715;SDS011;21840;44.920;8.616;2022-11-20T08:26:04;36.72;;;19.98;;
35715;SDS011;21840;44.920;8.616;2022-11-20T08:28:29;37.33;;;19.63;;
35715;SDS011;21840;44.920;8.616;2022-11-20T08:31:01;38.80;;;20.77;;
35715;SDS011;21840;44.920;8.616;2022-11-20T08:33:27;36.63;;;19.23;;
35715;SDS011;21840;44.920;8.616;2022-11-20T08:35:53;33.47;;;18.60;;
35715;SDS011;21840;44.920;8.616;2022-11-20T08:38:18;41.85;;;19.60;;
35715;SDS011;21840;44.920;8.616;2022-11-20T08:40:44;35.80;;;20.08;;
35715;SDS011;21840;44.920;8.616;2022-11-20T08:43:29;34.45;;;19.10;;
35715;SDS011;21840;44.920;8.616;2022-11-20T08:45:56;35.33;;;18.73;;
35715;SDS011;21840;44.920;8.616;2022-11-20T08:48:22;36.45;;;19.75;;
35715;SDS011;21840;44.920;8.616;2022-11-20T08:50:48;38.53;;;20.13;;
35715;SDS011;21840;44.920;8.616;2022-11-20T08:53:13;34.55;;;19.73;;
35715;SDS011;21840;44.920;8.616;2022-11-20T08:55:38;37.00;;;19.25;;
35715;SDS011;21840;44.920;8.616;2022-11-20T08:58:05;32.95;;;18.45;;
35715;SDS011;21840;44.920;8.616;2022-11-20T09:00:31;36.10;;;19.17;;
35715;SDS011;21840;44.920;8.616;2022-11-20T09:02:57;40.67;;;20.08;;
35715;SDS011;21840;44.920;8.616;2022-11-20T09:05:24;33.25;;;19.10;;
35715;SDS011;21840;44.920;8.616;2022-11-20T09:07:49;37.55;;;18.95;;
35715;SDS011;21840;44.920;8.616;2022-11-20T09:10:15;34.08;;;18.38;;
35715;SDS011;21840;44.920;8.616;2022-11-20T09:12:40;31.10;;;18.15;;
35715;SDS011;21840;44.920;8.616;2022-11-20T09:15:06;30.40;;;17.58;;
35715;SDS011;21840;44.920;8.616;2022-11-20T09:17:32;33.50;;;18.08;;
35715;SDS011;21840;44.920;8.616;2022-11-20T09:19:57;35.05;;;18.90;;
35715;SDS011;21840;44.920;8.616;2022-11-20T09:22:23;32.55;;;17.42;;
35715;SDS011;21840;44.920;8.616;2022-11-20T09:24:49;36.38;;;18.40;;
35715;SDS011;21840;44.920;8.616;2022-11-20T09:27:14;36.28;;;17.52;;
35715;SDS011;21840;44.920;8.616;2022-11-20T09:29:45;31.25;;;17.17;;
35715;SDS011;21840;44.920;8.616;2022-11-20T09:32:10;28.05;;;16.33;;
35715;SDS011;21840;44.920;8.616;2022-11-20T09:34:36;31.50;;;17.77;;
35715;SDS011;21840;44.920;8.616;2022-11-20T09:37:01;29.17;;;16.63;;
35715;SDS011;21840;44.920;8.616;2022-11-20T09:39:27;31.17;;;17.08;;
35715;SDS011;21840;44.920;8.616;2022-11-20T09:44:48;30.17;;;15.68;;
35715;SDS011;21840;44.920;8.616;2022-11-20T09:50:25;29.48;;;15.68;;
35715;SDS011;21840;44.920;8.616;2022-11-20T09:55:43;23.17;;;13.90;;
35715;SDS011;21840;44.920;8.616;2022-11-20T09:58:14;25.88;;;13.93;;
35715;SDS011;21840;44.920;8.616;2022-11-20T10:00:47;26.00;;;14.05;;
35715;SDS011;21840;44.920;8.616;2022-11-20T10:03:16;25.33;;;14.25;;
35715;SDS011;21840;44.920;8.616;2022-11-20T10:05:47;23.73;;;13.63;;
35715;SDS011;21840;44.920;8.616;2022-11-20T10:08:25;25.48;;;13.82;;
35715;SDS011;21840;44.920;8.616;2022-11-20T10:11:17;25.42;;;14.00;;
35715;SDS011;21840;44.920;8.616;2022-11-20T10:13:58;24.52;;;14.38;;
35715;SDS011;21840;44.920;8.616;2022-11-20T10:19:27;23.63;;;13.52;;
35715;SDS011;21840;44.920;8.616;2022-11-20T10:24:56;23.17;;;13.30;;
35715;SDS011;21840;44.920;8.616;2022-11-20T10:30:10;28.52;;;14.02;;
35715;SDS011;21840;44.920;8.616;2022-11-20T10:32:45;25.50;;;14.07;;
35715;SDS011;21840;44.920;8.616;2022-11-20T10:37:42;25.67;;;13.15;;
35715;SDS011;21840;44.920;8.616;2022-11-20T10:43:41;24.65;;;13.00;;
35715;SDS011;21840;44.920;8.616;2022-11-20T10:46:14;23.35;;;12.82;;
35715;SDS011;21840;44.920;8.616;2022-11-20T10:48:45;21.13;;;11.95;;
35715;SDS011;21840;44.920;8.616;2022-11-20T11:01:54;22.05;;;13.45;;
35715;SDS011;21840;44.920;8.616;2022-11-20T11:07:32;23.17;;;12.77;;
35715;SDS011;21840;44.920;8.616;2022-11-20T11:09:56;24.10;;;13.68;;
35715;SDS011;21840;44.920;8.616;2022-11-20T11:12:22;18.50;;;11.68;;
35715;SDS011;21840;44.920;8.616;2022-11-20T11:14:53;21.65;;;13.30;;
35715;SDS011;21840;44.920;8.616;2022-11-20T11:20:16;21.60;;;12.23;;
35715;SDS011;21840;44.920;8.616;2022-11-20T11:22:50;22.10;;;12.45;;
35715;SDS011;21840;44.920;8.616;2022-11-20T11:27:53;23.25;;;12.63;;
35715;SDS011;21840;44.920;8.616;2022-11-20T11:30:21;22.20;;;11.75;;
35715;SDS011;21840;44.920;8.616;2022-11-20T11:32:48;21.58;;;12.50;;
35715;SDS011;21840;44.920;8.616;2022-11-20T11:37:47;21.65;;;11.63;;
35715;SDS011;21840;44.920;8.616;2022-11-20T11:40:14;19.45;;;11.07;;
35715;SDS011;21840;44.920;8.616;2022-11-20T11:42:53;23.67;;;12.07;;
35715;SDS011;21840;44.920;8.616;2022-11-20T11:45:21;19.77;;;11.07;;
35715;SDS011;21840;44.920;8.616;2022-11-20T11:47:47;19.27;;;11.85;;
35715;SDS011;21840;44.920;8.616;2022-11-20T11:50:21;21.25;;;12.57;;
35715;SDS011;21840;44.920;8.616;2022-11-20T11:53:12;20.25;;;11.60;;
35715;SDS011;21840;44.920;8.616;2022-11-20T12:06:44;20.73;;;11.52;;
35715;SDS011;21840;44.920;8.616;2022-11-20T12:09:13;17.60;;;10.68;;
35715;SDS011;21840;44.920;8.616;2022-11-20T12:11:54;16.80;;;10.48;;
35715;SDS011;21840;44.920;8.616;2022-11-20T12:14:34;16.73;;;10.68;;
35715;SDS011;21840;44.920;8.616;2022-11-20T12:17:03;15.82;;;10.27;;
35715;SDS011;21840;44.920;8.616;2022-11-20T12:19:29;19.30;;;10.00;;
35715;SDS011;21840;44.920;8.616;2022-11-20T12:25:06;18.15;;;10.93;;
35715;SDS011;21840;44.920;8.616;2022-11-20T12:30:23;16.35;;;9.95;;
35715;SDS011;21840;44.920;8.616;2022-11-20T12:35:58;15.93;;;9.18;;
35715;SDS011;21840;44.920;8.616;2022-11-20T12:41:49;16.40;;;8.90;;
35715;SDS011;21840;44.920;8.616;2022-11-20T12:50:27;12.13;;;7.45;;
35715;SDS011;21840;44.920;8.616;2022-11-20T13:06:49;8.43;;;5.22;;
35715;SDS011;21840;44.920;8.616;2022-11-20T13:09:16;9.38;;;4.65;;
35715;SDS011;21840;44.920;8.616;2022-11-20T13:17:04;6.13;;;4.10;;
35715;SDS011;21840;44.920;8.616;2022-11-20T13:19:36;6.72;;;3.78;;
35715;SDS011;21840;44.920;8.616;2022-11-20T13:22:03;4.55;;;3.08;;
35715;SDS011;21840;44.920;8.616;2022-11-20T13:24:31;4.47;;;2.97;;
35715;SDS011;21840;44.920;8.616;2022-11-20T13:27:05;6.45;;;3.65;;
35715;SDS011;21840;44.920;8.616;2022-11-20T13:29:44;5.82;;;3.63;;
35715;SDS011;21840;44.920;8.616;2022-11-20T13:32:17;4.55;;;3.15;;
35715;SDS011;21840;44.920;8.616;2022-11-20T13:34:52;4.20;;;2.78;;
35715;SDS011;21840;44.920;8.616;2022-11-20T13:37:27;7.57;;;3.75;;
35715;SDS011;21840;44.920;8.616;2022-11-20T13:45:31;4.35;;;2.83;;
35715;SDS011;21840;44.920;8.616;2022-11-20T13:47:59;6.47;;;3.65;;
35715;SDS011;21840;44.920;8.616;2022-11-20T13:50:37;9.05;;;3.40;;
35715;SDS011;21840;44.920;8.616;2022-11-20T13:56:34;7.82;;;3.17;;
35715;SDS011;21840;44.920;8.616;2022-11-20T14:01:49;9.40;;;3.55;;
35715;SDS011;21840;44.920;8.616;2022-11-20T14:04:15;5.50;;;3.53;;
35715;SDS011;21840;44.920;8.616;2022-11-20T14:06:46;5.50;;;3.33;;
35715;SDS011;21840;44.920;8.616;2022-11-20T14:11:51;5.93;;;3.00;;
35715;SDS011;21840;44.920;8.616;2022-11-20T14:14:17;6.05;;;2.95;;
35715;SDS011;21840;44.920;8.616;2022-11-20T14:16:45;7.38;;;2.80;;
35715;SDS011;21840;44.920;8.616;2022-11-20T14:21:47;6.80;;;3.47;;
35715;SDS011;21840;44.920;8.616;2022-11-20T14:24:32;6.70;;;3.17;;
35715;SDS011;21840;44.920;8.616;2022-11-20T14:26:57;7.13;;;3.97;;
35715;SDS011;21840;44.920;8.616;2022-11-20T14:29:32;8.48;;;3.90;;
35715;SDS011;21840;44.920;8.616;2022-11-20T14:32:00;5.28;;;3.33;;
35715;SDS011;21840;44.920;8.616;2022-11-20T14:34:27;6.22;;;3.53;;
35715;SDS011;21840;44.920;8.616;2022-11-20T14:36:59;5.82;;;3.42;;
35715;SDS011;21840;44.920;8.616;2022-11-20T14:39:33;6.50;;;4.03;;
35715;SDS011;21840;44.920;8.616;2022-11-20T14:42:00;11.27;;;3.38;;
35715;SDS011;21840;44.920;8.616;2022-11-20T14:44:27;8.82;;;5.30;;
35715;SDS011;21840;44.920;8.616;2022-11-20T14:46:59;8.90;;;4.15;;
35715;SDS011;21840;44.920;8.616;2022-11-20T14:49:25;7.20;;;4.00;;
35715;SDS011;21840;44.920;8.616;2022-11-20T14:52:10;5.35;;;3.10;;
35715;SDS011;21840;44.920;8.616;2022-11-20T14:54:50;6.43;;;3.67;;
35715;SDS011;21840;44.920;8.616;2022-11-20T14:57:28;6.35;;;3.80;;
35715;SDS011;21840;44.920;8.616;2022-11-20T15:02:33;6.72;;;3.88;;
35715;SDS011;21840;44.920;8.616;2022-11-20T15:04:59;9.40;;;3.58;;
35715;SDS011;21840;44.920;8.616;2022-11-20T15:07:33;8.93;;;3.92;;
35715;SDS011;21840;44.920;8.616;2022-11-20T15:12:30;7.70;;;3.65;;
35715;SDS011;21840;44.920;8.616;2022-11-20T15:14:56;7.97;;;4.15;;
35715;SDS011;21840;44.920;8.616;2022-11-20T15:17:22;4.78;;;2.97;;
35715;SDS011;21840;44.920;8.616;2022-11-20T15:19:48;9.45;;;4.10;;
35715;SDS011;21840;44.920;8.616;2022-11-20T15:22:14;9.90;;;4.40;;
35715;SDS011;21840;44.920;8.616;2022-11-20T15:24:41;8.73;;;3.83;;
35715;SDS011;21840;44.920;8.616;2022-11-20T15:27:07;9.20;;;4.28;;
35715;SDS011;21840;44.920;8.616;2022-11-20T15:29:37;7.30;;;3.85;;
35715;SDS011;21840;44.920;8.616;2022-11-20T15:32:02;7.78;;;3.72;;
35715;SDS011;21840;44.920;8.616;2022-11-20T15:34:28;6.45;;;4.13;;
35715;SDS011;21840;44.920;8.616;2022-11-20T15:36:54;8.45;;;4.72;;
35715;SDS011;21840;44.920;8.616;2022-11-20T15:39:19;8.80;;;4.57;;
35715;SDS011;21840;44.920;8.616;2022-11-20T15:41:46;10.55;;;4.97;;
35715;SDS011;21840;44.920;8.616;2022-11-20T15:44:11;11.85;;;4.97;;
35715;SDS011;21840;44.920;8.616;2022-11-20T15:46:38;11.05;;;5.95;;
35715;SDS011;21840;44.920;8.616;2022-11-20T15:49:14;12.35;;;5.05;;
35715;SDS011;21840;44.920;8.616;2022-11-20T15:51:41;6.85;;;4.07;;
35715;SDS011;21840;44.920;8.616;2022-11-20T15:54:13;8.05;;;4.65;;
35715;SDS011;21840;44.920;8.616;2022-11-20T15:56:45;16.75;;;7.78;;
35715;SDS011;21840;44.920;8.616;2022-11-20T15:59:11;13.93;;;7.72;;
35715;SDS011;21840;44.920;8.616;2022-11-20T16:01:39;8.73;;;4.97;;
35715;SDS011;21840;44.920;8.616;2022-11-20T16:04:05;11.07;;;6.53;;
35715;SDS011;21840;44.920;8.616;2022-11-20T16:06:34;13.48;;;6.05;;
35715;SDS011;21840;44.920;8.616;2022-11-20T16:09:00;10.98;;;5.10;;
35715;SDS011;21840;44.920;8.616;2022-11-20T16:11:25;9.75;;;5.50;;
35715;SDS011;21840;44.920;8.616;2022-11-20T16:13:51;12.82;;;5.70;;
35715;SDS011;21840;44.920;8.616;2022-11-20T16:16:36;14.57;;;6.68;;
35715;SDS011;21840;44.920;8.616;2022-11-20T16:19:04;16.77;;;7.97;;
35715;SDS011;21840;44.920;8.616;2022-11-20T16:21:30;12.60;;;7.13;;
35715;SDS011;21840;44.920;8.616;2022-11-20T16:24:02;23.95;;;7.68;;
35715;SDS011;21840;44.920;8.616;2022-11-20T16:26:30;17.55;;;7.45;;
35715;SDS011;21840;44.920;8.616;2022-11-20T16:28:56;12.85;;;7.00;;
35715;SDS011;21840;44.920;8.616;2022-11-20T16:31:24;13.63;;;6.85;;
35715;SDS011;21840;44.920;8.616;2022-11-20T16:33:53;13.02;;;6.80;;